createdAt,value
2018-05-14T00:01:05.529Z,21.47
2018-05-14T00:03:33.681Z,22.40
2018-05-14T00:06:01.806Z,17.60
2018-05-14T00:08:30.021Z,23.83
2018-05-14T00:10:58.117Z,21.50
2018-05-14T00:13:26.269Z,23.20
2018-05-14T00:15:54.356Z,23.47
2018-05-14T00:18:22.521Z,22.43
2018-05-14T00:20:50.647Z,22.17
2018-05-14T00:23:18.762Z,21.47
2018-05-14T00:25:47.619Z,25.00
2018-05-14T00:28:15.723Z,28.63
2018-05-14T00:30:43.832Z,23.93
2018-05-14T00:33:12.709Z,24.13
2018-05-14T00:35:40.815Z,25.47
2018-05-14T00:38:09.676Z,23.90
2018-05-14T00:40:37.822Z,25.70
2018-05-14T00:43:05.924Z,25.40
2018-05-14T00:45:34.031Z,26.10
2018-05-14T00:48:02.137Z,27.93
2018-05-14T00:50:30.224Z,24.27
2018-05-14T00:52:58.344Z,22.93
2018-05-14T00:55:26.457Z,28.60
2018-05-14T00:57:54.543Z,23.40
2018-05-14T01:00:22.711Z,26.30
2018-05-14T01:02:50.825Z,25.77
2018-05-14T01:05:18.976Z,24.80
2018-05-14T01:07:47.084Z,26.80
2018-05-14T01:10:15.180Z,25.00
2018-05-14T01:12:43.291Z,28.60
2018-05-14T01:15:11.449Z,27.73
2018-05-14T01:17:39.563Z,23.83
2018-05-14T01:20:07.715Z,25.63
2018-05-14T01:22:35.806Z,29.03
2018-05-14T01:25:03.896Z,23.57
2018-05-14T01:27:32.035Z,25.27
2018-05-14T01:30:00.123Z,23.13
2018-05-14T01:32:28.267Z,24.43
2018-05-14T01:34:56.375Z,24.77
2018-05-14T01:37:25.252Z,27.37
2018-05-14T01:39:53.365Z,24.27
2018-05-14T01:42:22.245Z,24.07
2018-05-14T01:44:50.400Z,24.13
2018-05-14T01:47:18.506Z,24.83
2018-05-14T01:49:47.363Z,24.10
2018-05-14T01:52:15.471Z,24.67
2018-05-14T01:54:43.576Z,29.67
2018-05-14T01:57:11.681Z,23.17
2018-05-14T01:59:39.846Z,24.27
2018-05-14T02:02:07.928Z,25.67
2018-05-14T02:04:36.027Z,23.70
2018-05-14T02:07:04.132Z,20.67
2018-05-14T02:09:33.026Z,22.20
2018-05-14T02:12:01.149Z,18.93
2018-05-14T02:14:29.262Z,23.50
2018-05-14T02:16:57.395Z,21.97
2018-05-14T02:19:26.249Z,20.63
2018-05-14T02:21:54.348Z,17.50
2018-05-14T02:24:22.480Z,17.50
2018-05-14T02:26:50.588Z,16.43
2018-05-14T02:29:18.778Z,17.27
2018-05-14T02:31:48.372Z,17.47
2018-05-14T02:34:16.470Z,15.53
2018-05-14T02:36:44.575Z,17.70
2018-05-14T02:39:12.664Z,17.17
2018-05-14T02:41:40.750Z,17.60
2018-05-14T02:44:08.904Z,16.20
2018-05-14T02:46:37.004Z,16.10
2018-05-14T02:49:05.107Z,17.93
2018-05-14T02:51:33.225Z,14.13
2018-05-14T02:54:01.350Z,13.10
2018-05-14T02:56:29.494Z,13.17
2018-05-14T02:58:57.594Z,14.13
2018-05-14T03:01:26.471Z,14.40
2018-05-14T03:03:54.596Z,14.80
2018-05-14T03:06:22.713Z,10.90
2018-05-14T03:08:50.808Z,11.30
2018-05-14T03:11:18.922Z,12.37
2018-05-14T03:13:47.798Z,12.70
2018-05-14T03:16:15.879Z,13.23
2018-05-14T03:18:43.986Z,12.00
2018-05-14T03:21:12.110Z,14.57
2018-05-14T03:23:40.207Z,10.33
2018-05-14T03:26:08.320Z,11.67
2018-05-14T03:28:36.441Z,11.27
2018-05-14T03:31:04.544Z,11.47
2018-05-14T03:33:33.400Z,12.00
2018-05-14T03:36:01.511Z,10.70
2018-05-14T03:38:29.638Z,14.77
2018-05-14T03:40:57.724Z,10.90
2018-05-14T03:43:25.815Z,12.07
2018-05-14T03:45:53.984Z,14.20
2018-05-14T03:48:22.090Z,13.20
2018-05-14T03:50:50.178Z,12.20
2018-05-14T03:53:18.291Z,11.93
2018-05-14T03:55:46.422Z,11.63
2018-05-14T03:58:26.262Z,11.07
2018-05-14T04:01:06.969Z,11.63
2018-05-14T04:03:46.798Z,12.00
2018-05-14T04:06:27.622Z,11.83
2018-05-14T04:08:55.768Z,12.83
2018-05-14T04:11:24.664Z,11.57
2018-05-14T04:13:52.800Z,12.13
2018-05-14T04:16:21.804Z,14.83
2018-05-14T04:18:49.898Z,11.70
2018-05-14T04:21:18.020Z,11.57
2018-05-14T04:23:46.123Z,13.10
2018-05-14T04:26:15.007Z,14.40
2018-05-14T04:28:43.137Z,13.80
2018-05-14T04:31:11.251Z,14.20
2018-05-14T04:33:39.350Z,14.17
2018-05-14T04:36:07.483Z,11.90
2018-05-14T04:38:35.583Z,12.10
2018-05-14T04:41:03.765Z,11.83
2018-05-14T04:43:31.957Z,13.77
2018-05-14T04:46:00.039Z,12.47
2018-05-14T04:48:28.176Z,13.30
2018-05-14T04:50:56.260Z,14.87
2018-05-14T04:53:24.366Z,12.50
2018-05-14T04:55:53.273Z,12.70
2018-05-14T04:58:22.178Z,13.17
2018-05-14T05:00:50.400Z,11.33
2018-05-14T05:03:18.518Z,12.17
2018-05-14T05:05:46.606Z,12.37
2018-05-14T05:08:15.500Z,12.03
2018-05-14T05:10:43.631Z,14.00
2018-05-14T05:13:11.791Z,10.50
2018-05-14T05:15:39.930Z,12.13
2018-05-14T05:18:08.099Z,12.83
2018-05-14T05:20:36.268Z,12.17
2018-05-14T05:23:05.201Z,10.33
2018-05-14T05:25:33.300Z,11.47
2018-05-14T05:28:01.469Z,10.50
2018-05-14T05:30:29.608Z,10.43
2018-05-14T05:32:57.867Z,11.23
2018-05-14T05:35:25.990Z,10.30
2018-05-14T05:37:54.208Z,10.43
2018-05-14T05:40:22.213Z,11.17
2018-05-14T05:42:50.328Z,10.73
2018-05-14T05:45:18.494Z,9.40
2018-05-14T05:47:46.548Z,10.43
2018-05-14T05:50:14.695Z,11.27
2018-05-14T05:52:42.793Z,11.07
2018-05-14T05:55:11.655Z,12.73
2018-05-14T05:57:39.791Z,11.13
2018-05-14T06:00:08.675Z,9.33
2018-05-14T06:02:38.279Z,9.83
2018-05-14T06:05:06.375Z,12.50
2018-05-14T06:07:34.526Z,9.60
2018-05-14T06:10:02.636Z,9.07
2018-05-14T06:12:30.714Z,11.50
2018-05-14T06:14:58.828Z,11.30
2018-05-14T06:17:27.764Z,8.70
2018-05-14T06:19:55.864Z,10.80
2018-05-14T06:22:23.983Z,8.60
2018-05-14T06:24:52.093Z,9.73
2018-05-14T06:27:21.005Z,8.83
2018-05-14T06:29:49.138Z,10.73
2018-05-14T06:32:17.253Z,8.70
2018-05-14T06:34:45.388Z,10.60
2018-05-14T06:37:13.483Z,8.53
2018-05-14T06:39:41.606Z,7.53
2018-05-14T06:42:09.765Z,8.77
2018-05-14T06:44:37.855Z,9.13
2018-05-14T06:47:05.962Z,9.20
2018-05-14T06:49:34.058Z,8.30
2018-05-14T06:52:02.192Z,9.20
2018-05-14T06:54:30.347Z,8.07
2018-05-14T06:56:58.443Z,7.57
2018-05-14T06:59:26.686Z,8.60
2018-05-14T07:01:54.827Z,9.17
2018-05-14T07:04:23.019Z,7.97
2018-05-14T07:06:51.274Z,7.93
2018-05-14T07:09:19.339Z,7.07
2018-05-14T07:11:48.203Z,6.93
2018-05-14T07:14:16.320Z,7.90
2018-05-14T07:16:44.420Z,7.10
2018-05-14T07:19:13.316Z,7.37
2018-05-14T07:21:41.404Z,7.83
2018-05-14T07:24:10.267Z,7.33
2018-05-14T07:26:38.367Z,7.17
2018-05-14T07:29:06.495Z,7.33
2018-05-14T07:31:35.375Z,7.87
2018-05-14T07:34:03.490Z,6.83
2018-05-14T07:36:32.426Z,7.60
2018-05-14T07:39:00.487Z,8.57
2018-05-14T07:41:28.602Z,7.80
2018-05-14T07:43:56.718Z,8.87
2018-05-14T07:46:24.814Z,8.40
2018-05-14T07:48:53.686Z,8.73
2018-05-14T07:51:21.787Z,7.83
2018-05-14T07:53:49.977Z,7.97
2018-05-14T07:56:18.002Z,8.00
2018-05-14T07:58:46.106Z,8.70
2018-05-14T08:01:14.201Z,9.17
2018-05-14T08:03:42.325Z,9.40
2018-05-14T08:06:11.161Z,9.00
2018-05-14T08:08:39.260Z,9.83
2018-05-14T08:11:07.364Z,10.20
2018-05-14T08:13:35.482Z,9.83
2018-05-14T08:16:04.331Z,9.90
2018-05-14T08:18:32.452Z,10.03
2018-05-14T08:21:00.592Z,10.53
2018-05-14T08:23:29.451Z,11.30
2018-05-14T08:25:57.580Z,11.07
2018-05-14T08:28:25.685Z,9.40
2018-05-14T08:30:53.794Z,10.23
2018-05-14T08:33:21.866Z,10.37
2018-05-14T08:35:49.995Z,9.97
2018-05-14T08:38:18.098Z,11.00
2018-05-14T08:40:46.203Z,11.73
2018-05-14T08:43:14.307Z,11.20
2018-05-14T08:45:42.403Z,11.40
2018-05-14T08:48:10.502Z,10.70
2018-05-14T08:50:38.622Z,10.17
2018-05-14T08:53:06.720Z,11.20
2018-05-14T08:55:34.823Z,10.63
2018-05-14T08:58:02.938Z,10.40
2018-05-14T09:00:31.067Z,11.37
2018-05-14T09:02:59.209Z,11.37
2018-05-14T09:05:27.320Z,12.77
2018-05-14T09:07:56.194Z,11.90
2018-05-14T09:10:24.306Z,13.20
2018-05-14T09:12:53.184Z,13.17
2018-05-14T09:15:21.283Z,13.00
2018-05-14T09:17:50.591Z,12.93
2018-05-14T09:20:19.460Z,14.87
2018-05-14T09:22:47.589Z,14.20
2018-05-14T09:25:15.724Z,13.33
2018-05-14T09:27:43.819Z,13.87
2018-05-14T09:30:11.925Z,13.97
2018-05-14T09:32:40.026Z,15.80
2018-05-14T09:35:08.905Z,14.53
2018-05-14T09:37:37.023Z,14.80
2018-05-14T09:40:05.137Z,16.07
2018-05-14T09:42:33.233Z,16.23
2018-05-14T09:45:01.351Z,15.53
2018-05-14T09:47:29.477Z,15.87
2018-05-14T09:49:57.623Z,17.80
2018-05-14T09:52:26.493Z,16.20
2018-05-14T09:54:54.679Z,16.47
2018-05-14T09:57:22.785Z,16.03
2018-05-14T09:59:50.915Z,17.43
2018-05-14T10:02:19.040Z,18.33
2018-05-14T10:04:47.165Z,16.17
2018-05-14T10:07:16.037Z,16.87
2018-05-14T10:09:44.146Z,14.97
2018-05-14T10:12:12.309Z,14.13
2018-05-14T10:14:40.428Z,15.50
2018-05-14T10:17:09.306Z,15.03
2018-05-14T10:19:37.417Z,15.43
2018-05-14T10:22:06.340Z,15.43
2018-05-14T10:24:34.476Z,13.77
2018-05-14T10:27:02.562Z,15.33
2018-05-14T10:29:30.658Z,14.23
2018-05-14T10:31:59.591Z,14.37
2018-05-14T10:34:27.628Z,14.93
2018-05-14T10:36:55.741Z,14.97
2018-05-14T10:39:24.603Z,15.80
2018-05-14T10:41:52.706Z,15.17
2018-05-14T10:44:20.834Z,13.97
2018-05-14T10:46:49.847Z,13.80
2018-05-14T10:49:17.815Z,14.37
2018-05-14T10:51:46.731Z,14.83
2018-05-14T10:54:14.833Z,19.93
2018-05-14T10:56:42.939Z,25.27
2018-05-14T10:59:11.041Z,14.50
2018-05-14T11:01:39.131Z,15.07
2018-05-14T11:04:07.264Z,14.10
2018-05-14T11:06:35.396Z,14.10
2018-05-14T11:09:03.518Z,14.63
2018-05-14T11:11:32.360Z,14.27
2018-05-14T11:14:00.436Z,14.73
2018-05-14T11:16:28.557Z,14.53
2018-05-14T11:18:56.667Z,14.90
2018-05-14T11:21:25.649Z,14.23
2018-05-14T11:23:53.699Z,15.40
2018-05-14T11:26:21.807Z,14.50
2018-05-14T11:28:49.914Z,13.77
2018-05-14T11:31:18.037Z,14.20
2018-05-14T11:33:46.120Z,14.03
2018-05-14T11:36:14.191Z,13.33
2018-05-14T11:38:42.314Z,13.70
2018-05-14T11:41:10.409Z,13.47
2018-05-14T11:43:38.508Z,13.23
2018-05-14T11:46:06.625Z,21.13
2018-05-14T11:48:35.471Z,13.57
2018-05-14T11:51:03.607Z,13.97
2018-05-14T11:53:32.489Z,14.30
2018-05-14T11:56:00.575Z,14.67
2018-05-14T11:58:28.708Z,16.20
2018-05-14T12:00:56.788Z,16.23
2018-05-14T12:03:24.864Z,15.77
2018-05-14T12:05:52.986Z,16.00
2018-05-14T12:08:21.109Z,15.93
2018-05-14T12:10:49.179Z,16.03
2018-05-14T12:13:18.064Z,17.40
2018-05-14T12:15:46.195Z,18.13
2018-05-14T12:18:15.108Z,19.37
2018-05-14T12:20:43.213Z,18.40
2018-05-14T12:23:11.334Z,17.93
2018-05-14T12:25:39.448Z,16.63
2018-05-14T12:28:08.317Z,18.43
2018-05-14T12:30:36.408Z,16.83
2018-05-14T12:33:04.564Z,18.57
2018-05-14T12:35:32.666Z,16.90
2018-05-14T12:38:00.800Z,19.83
2018-05-14T12:40:29.688Z,19.27
2018-05-14T12:42:58.568Z,18.60
2018-05-14T12:45:26.655Z,18.33
2018-05-14T12:47:54.787Z,18.63
2018-05-14T12:50:22.957Z,18.30
2018-05-14T12:52:51.885Z,19.40
2018-05-14T12:55:19.951Z,18.30
2018-05-14T12:57:48.832Z,20.30
2018-05-14T13:00:16.925Z,19.03
2018-05-14T13:02:45.836Z,19.60
2018-05-14T13:05:14.697Z,18.67
2018-05-14T13:07:42.829Z,19.87
2018-05-14T13:10:11.683Z,17.80
2018-05-14T13:12:39.767Z,18.43
2018-05-14T13:15:07.881Z,17.43
2018-05-14T13:17:35.977Z,18.83
2018-05-14T13:20:04.844Z,18.43
2018-05-14T13:22:32.998Z,18.17
2018-05-14T13:25:01.113Z,18.40
2018-05-14T13:27:29.247Z,22.23
2018-05-14T13:29:58.111Z,22.23
2018-05-14T13:32:26.222Z,18.83
2018-05-14T13:34:54.304Z,17.90
2018-05-14T13:37:22.451Z,18.30
2018-05-14T13:39:51.259Z,18.43
2018-05-14T13:42:19.418Z,18.43
2018-05-14T13:44:47.529Z,18.00
2018-05-14T13:47:15.651Z,18.00
2018-05-14T13:49:44.520Z,16.60
2018-05-14T13:52:12.660Z,16.83
2018-05-14T13:54:40.785Z,18.10
2018-05-14T13:57:08.876Z,18.97
2018-05-14T13:59:36.985Z,18.53
2018-05-14T14:02:05.101Z,19.27
2018-05-14T14:04:33.237Z,18.60
2018-05-14T14:07:01.310Z,20.37
2018-05-14T14:09:29.416Z,19.47
2018-05-14T14:11:59.048Z,20.33
2018-05-14T14:14:27.270Z,19.43
2018-05-14T14:16:56.183Z,19.57
2018-05-14T14:19:24.198Z,20.90
2018-05-14T14:21:52.286Z,23.13
2018-05-14T14:24:20.404Z,20.97
2018-05-14T14:26:48.493Z,23.47
2018-05-14T14:29:17.380Z,21.87
2018-05-14T14:31:45.491Z,24.77
2018-05-14T14:34:13.604Z,25.53
2018-05-14T14:36:41.709Z,29.00
2018-05-14T14:39:09.814Z,24.47
2018-05-14T14:41:37.925Z,26.00
2018-05-14T14:44:06.790Z,28.00
2018-05-14T14:46:34.881Z,27.53
2018-05-14T14:49:03.054Z,26.77
2018-05-14T14:51:31.884Z,29.10
2018-05-14T14:54:00.007Z,27.70
2018-05-14T14:56:28.103Z,27.80
2018-05-14T14:58:56.230Z,27.63
2018-05-14T15:01:24.312Z,29.30
2018-05-14T15:03:52.460Z,29.73
2018-05-14T15:06:20.615Z,31.70
2018-05-14T15:08:49.551Z,26.97
2018-05-14T15:11:17.697Z,31.63
2018-05-14T15:13:46.627Z,31.17
2018-05-14T15:16:14.770Z,31.93
2018-05-14T15:18:42.932Z,30.43
2018-05-14T15:21:11.043Z,30.23
2018-05-14T15:23:39.943Z,31.07
2018-05-14T15:26:08.048Z,30.80
2018-05-14T15:28:36.907Z,29.43
2018-05-14T15:31:05.050Z,31.73
2018-05-14T15:33:33.136Z,33.60
2018-05-14T15:36:01.241Z,31.70
2018-05-14T15:38:29.361Z,30.27
2018-05-14T15:40:57.468Z,35.07
2018-05-14T15:43:25.540Z,32.20
2018-05-14T15:45:53.652Z,33.70
2018-05-14T15:48:21.759Z,34.17
2018-05-14T15:50:49.928Z,35.80
2018-05-14T15:53:18.787Z,34.47
2018-05-14T15:55:46.954Z,34.10
2018-05-14T15:58:15.046Z,33.63
2018-05-14T16:00:43.263Z,36.33
2018-05-14T16:03:12.114Z,32.93
2018-05-14T16:05:40.224Z,37.67
2018-05-14T16:08:08.366Z,33.80
2018-05-14T16:10:36.472Z,33.77
2018-05-14T16:13:04.572Z,31.00
2018-05-14T16:15:32.700Z,33.27
2018-05-14T16:18:01.577Z,36.23
2018-05-14T16:20:29.777Z,39.13
2018-05-14T16:22:57.888Z,48.40
2018-05-14T16:25:26.076Z,41.80
2018-05-14T16:27:54.338Z,47.80
2018-05-14T16:30:22.441Z,52.20
2018-05-14T16:32:51.300Z,46.43
2018-05-14T16:35:19.565Z,47.07
2018-05-14T16:37:47.689Z,55.83
2018-05-14T16:40:15.808Z,64.43
2018-05-14T16:42:44.768Z,50.67
2018-05-14T16:45:12.856Z,60.13
2018-05-14T16:47:41.003Z,60.27
2018-05-14T16:50:09.189Z,61.43
2018-05-14T16:52:37.280Z,65.10
2018-05-14T16:55:05.395Z,53.13
2018-05-14T16:57:33.594Z,58.53
2018-05-14T17:00:02.442Z,58.40
2018-05-14T17:02:31.410Z,69.70
2018-05-14T17:04:59.553Z,53.07
2018-05-14T17:07:27.700Z,56.17
2018-05-14T17:09:56.554Z,59.00
2018-05-14T17:12:24.612Z,52.87
2018-05-14T17:14:52.668Z,51.30
2018-05-14T17:17:21.532Z,63.07
2018-05-14T17:19:49.546Z,64.93
2018-05-14T17:22:18.358Z,51.43
2018-05-14T17:24:47.183Z,52.87
2018-05-14T17:27:15.238Z,49.07
2018-05-14T17:29:44.060Z,47.17
2018-05-14T17:32:12.111Z,52.27
2018-05-14T17:34:40.178Z,44.63
2018-05-14T17:37:08.251Z,43.70
2018-05-14T17:39:36.338Z,44.80
2018-05-14T17:42:04.450Z,46.03
2018-05-14T17:44:33.321Z,51.63
2018-05-14T17:47:01.504Z,56.83
2018-05-14T17:49:29.575Z,47.07
2018-05-14T17:51:57.707Z,48.17
2018-05-14T17:54:25.829Z,52.27
2018-05-14T17:56:53.976Z,44.73
2018-05-14T17:59:22.170Z,51.63
2018-05-14T18:01:50.982Z,44.73
2018-05-14T18:04:19.817Z,51.97
2018-05-14T18:06:47.915Z,47.87
2018-05-14T18:09:16.004Z,43.43
2018-05-14T18:11:44.129Z,51.23
2018-05-14T18:14:13.009Z,52.17
2018-05-14T18:16:41.135Z,49.40
2018-05-14T18:19:10.000Z,50.37
2018-05-14T18:21:38.442Z,51.63
2018-05-14T18:24:06.240Z,49.07
2018-05-14T18:26:40.079Z,44.60
2018-05-14T18:29:08.191Z,46.73
2018-05-14T18:31:42.744Z,48.57
2018-05-14T18:34:21.560Z,46.23
2018-05-14T18:36:49.686Z,51.47
2018-05-14T18:39:17.783Z,49.47
2018-05-14T18:41:45.906Z,46.87
2018-05-14T18:44:14.009Z,48.97
2018-05-14T18:46:42.117Z,48.30
2018-05-14T18:49:10.336Z,53.23
2018-05-14T18:51:38.431Z,49.27
2018-05-14T18:54:06.555Z,49.13
2018-05-14T18:56:35.454Z,47.87
2018-05-14T18:59:04.361Z,47.43
2018-05-14T19:01:33.239Z,49.57
2018-05-14T19:04:01.336Z,44.20
2018-05-14T19:06:29.493Z,47.10
2018-05-14T19:08:57.587Z,42.43
2018-05-14T19:11:31.440Z,47.03
2018-05-14T19:14:00.322Z,47.77
2018-05-14T19:16:34.122Z,47.77
2018-05-14T19:19:02.247Z,39.83
2018-05-14T19:21:31.126Z,46.53
2018-05-14T19:23:59.310Z,47.00
2018-05-14T19:26:27.386Z,40.97
2018-05-14T19:29:01.315Z,44.87
2018-05-14T19:31:29.446Z,44.67
2018-05-14T19:34:04.070Z,50.40
2018-05-14T19:36:32.164Z,50.17
2018-05-14T19:39:01.030Z,52.13
2018-05-14T19:41:29.221Z,57.10
2018-05-14T19:43:57.276Z,50.77
2018-05-14T19:46:25.397Z,42.90
2018-05-14T19:48:53.522Z,68.93
2018-05-14T19:51:21.628Z,56.90
2018-05-14T19:53:49.705Z,53.20
2018-05-14T19:56:17.808Z,53.50
2018-05-14T19:58:45.973Z,55.43
2018-05-14T20:01:14.076Z,49.27
2018-05-14T20:03:42.188Z,59.43
2018-05-14T20:06:10.304Z,63.30
2018-05-14T20:08:38.478Z,56.67
2018-05-14T20:11:07.819Z,64.03
2018-05-14T20:13:35.920Z,44.07
2018-05-14T20:16:04.016Z,48.67
2018-05-14T20:18:32.114Z,52.93
2018-05-14T20:21:00.223Z,48.83
2018-05-14T20:23:28.358Z,75.40
2018-05-14T20:25:56.493Z,68.27
2018-05-14T20:28:24.583Z,45.30
2018-05-14T20:30:53.530Z,58.23
2018-05-14T20:33:21.628Z,61.97
2018-05-14T20:35:49.731Z,52.63
2018-05-14T20:38:17.860Z,51.37
2018-05-14T20:40:46.740Z,50.57
2018-05-14T20:43:14.887Z,63.93
2018-05-14T20:45:43.164Z,63.80
2018-05-14T20:48:11.297Z,53.00
2018-05-14T20:50:39.446Z,53.27
2018-05-14T20:53:07.591Z,53.30
2018-05-14T20:55:36.466Z,50.67
2018-05-14T20:58:04.640Z,53.03
2018-05-14T21:00:32.740Z,54.60
2018-05-14T21:03:00.855Z,54.33
2018-05-14T21:05:29.723Z,51.67
2018-05-14T21:07:58.086Z,53.33
2018-05-14T21:10:26.340Z,63.87
2018-05-14T21:12:55.455Z,52.30
2018-05-14T21:15:23.559Z,57.97
2018-05-14T21:17:51.994Z,43.57
2018-05-14T21:20:20.897Z,51.83
2018-05-14T21:22:49.791Z,53.30
2018-05-14T21:25:17.920Z,58.10
2018-05-14T21:27:46.861Z,56.30
2018-05-14T21:30:15.025Z,51.57
2018-05-14T21:32:43.185Z,55.73
2018-05-14T21:35:12.073Z,48.87
2018-05-14T21:37:40.251Z,45.60
2018-05-14T21:40:08.264Z,61.73
2018-05-14T21:42:36.379Z,44.97
2018-05-14T21:45:04.539Z,48.90
2018-05-14T21:47:32.720Z,41.03
2018-05-14T21:50:01.628Z,44.53
2018-05-14T21:52:29.828Z,40.20
2018-05-14T21:54:57.944Z,49.30
2018-05-14T21:57:26.063Z,40.93
2018-05-14T21:59:54.203Z,54.97
2018-05-14T22:02:22.417Z,41.10
2018-05-14T22:04:50.568Z,50.53
2018-05-14T22:07:18.709Z,47.70
2018-05-14T22:09:46.897Z,56.17
2018-05-14T22:12:15.002Z,38.73
2018-05-14T22:14:43.157Z,44.50
2018-05-14T22:17:11.235Z,53.53
2018-05-14T22:19:39.403Z,52.73
2018-05-14T22:22:07.567Z,43.23
2018-05-14T22:24:36.152Z,42.43
2018-05-14T22:27:04.246Z,45.97
2018-05-14T22:29:32.386Z,45.50
2018-05-14T22:32:01.355Z,42.27
2018-05-14T22:34:29.507Z,46.10
2018-05-14T22:36:57.653Z,37.17
2018-05-14T22:39:25.827Z,40.20
2018-05-14T22:41:53.935Z,46.60
2018-05-14T22:44:22.043Z,41.30
2018-05-14T22:46:50.225Z,45.43
2018-05-14T22:49:19.087Z,39.83
2018-05-14T22:51:47.192Z,46.63
2018-05-14T22:54:27.145Z,44.37
2018-05-14T22:56:55.240Z,48.13
2018-05-14T22:59:23.375Z,40.00
2018-05-14T23:01:51.472Z,47.47
2018-05-14T23:04:19.576Z,53.03
2018-05-14T23:06:47.673Z,51.10
2018-05-14T23:09:15.782Z,47.33
2018-05-14T23:11:44.656Z,48.60
2018-05-14T23:14:12.765Z,49.73
2018-05-14T23:16:41.720Z,47.67
2018-05-14T23:19:09.882Z,53.57
2018-05-14T23:21:38.660Z,43.70
2018-05-14T23:24:07.555Z,45.37
2018-05-14T23:26:36.461Z,41.37
2018-05-14T23:29:04.581Z,55.03
2018-05-14T23:31:32.734Z,47.60
2018-05-14T23:34:00.816Z,42.80
2018-05-14T23:36:29.708Z,43.23
2018-05-14T23:38:57.849Z,41.60
2018-05-14T23:41:25.987Z,45.07
2018-05-14T23:43:54.180Z,54.50
2018-05-14T23:46:22.282Z,58.97
2018-05-14T23:48:51.180Z,45.97
2018-05-14T23:51:20.103Z,47.13
2018-05-14T23:53:48.263Z,41.27
2018-05-14T23:56:16.332Z,54.83
2018-05-14T23:58:46.016Z,40.07
